Terminal Aerodrome Forecast
Issued by NWS Twin Cities, MN

Home | Current Version | Previous Version | Text Only | Print | Product List | Glossary On
Versions: 1 2 3 4 5 6 7 8 9 10 11 12 13 14 15 16 17 18
761
FTUS43 KMPX 062341
TAFSTC
TAF
KSTC 062341Z 0700/0724 20013KT P6SM VCSH OVC070
     FM070700 25015G23KT P6SM VCSH OVC050
     FM071200 28017G26KT P6SM OVC030
     FM071800 29019G30KT 2SM -SHSN BLSN OVC015=

USA.gov is the U.S. government's official web portal to all federal, state and local government web resources and services.